Time;durP1;ratioP1;P1;durP2;ratioP2;P2;SDS_P1;SDS_P2;PMS_P1;PMS_P2;Temp;Humidity;BMP_temperature;BMP_pressure;BME280_temperature;BME280_humidity;BME280_pressure;Samples;Min_cycle;Max_cycle;Signal;HPM_P1;HPM_P2
2023/11/24 00:02:23;;;;;;;;;;;;;;;3.92;81.29;94947.78;5061841;28;20056;-73
2023/11/24 00:04:48;;;;;;;;;;;;;;;3.26;82.96;94948.00;5070104;28;19921;-73
2023/11/24 00:07:13;;;;;;;;;;;;;;;2.68;86.50;94930.75;5070840;28;20006;-74
2023/11/24 00:09:39;;;;;;;;;;;;;;;2.23;87.98;94954.97;5066761;28;20031;-73
2023/11/24 00:12:05;;;;;;;;;;;;;;;2.63;88.70;94962.72;5068457;28;20479;-73
2023/11/24 00:14:30;;;;;;;;;;;;;;;3.14;85.60;94964.97;5059559;28;19959;-74
2023/11/24 00:16:57;;;;;;;;;;;;;;;2.92;85.59;94953.88;5078726;28;19916;-73
2023/11/24 00:19:22;;;;;;;;;;;;;;;3.26;84.14;94950.63;5044288;28;19924;-73
2023/11/24 00:21:48;;;;;;;;;;;;;;;2.58;85.51;94978.09;5071247;28;19930;-73
2023/11/24 00:24:14;;;;;;;;;;;;;;;1.90;87.11;94957.06;5060556;28;20062;-73
2023/11/24 00:26:39;;;;;;;;;;;;;;;1.50;89.03;94985.09;5061404;28;20008;-73
2023/11/24 00:29:05;;;;;;;;;;;;;;;1.37;90.86;94970.44;5063109;28;19932;-72
2023/11/24 00:31:31;;;;;;;;;;;;;;;1.30;91.60;94997.34;5073510;28;19928;-73
2023/11/24 00:33:56;;;;;;;;;;;;;;;0.69;90.64;95003.38;5070338;28;19924;-73
2023/11/24 00:36:21;;;;;;;;;;;;;;;1.22;89.21;95003.25;5069268;28;19916;-73
2023/11/24 00:38:49;;;;;;;;;;;;;;;0.88;88.08;95001.78;5069172;28;19920;-72
2023/11/24 00:41:15;;;;;;;;;;;;;;;0.78;87.06;95007.00;5074128;28;19920;-73
2023/11/24 00:43:41;;;;;;;;;;;;;;;0.48;89.02;95021.72;5073078;28;19957;-73
2023/11/24 00:46:07;;;;;;;;;;;;;;;0.27;89.74;95008.69;5072194;28;19992;-73
2023/11/24 00:48:32;;;;;;;;;;;;;;;0.10;88.94;95008.28;5071833;28;19934;-73
2023/11/24 00:50:57;;;;;;;;;;;;;;;0.15;88.71;95021.00;5073215;28;19952;-73
2023/11/24 00:53:22;;;;;;;;;;;;;;;-0.50;90.75;95003.56;5070266;28;19969;-73
2023/11/24 00:55:48;;;;;;;;;;;;;;;-1.10;90.15;95005.56;5068941;28;19999;-73
2023/11/24 00:58:13;;;;;;;;;;;;;;;-0.96;89.58;95017.56;5067502;28;19975;-72
2023/11/24 01:00:38;;;;;;;;;;;;;;;-1.27;92.52;95024.31;5062256;28;19964;-74
2023/11/24 01:03:05;;;;;;;;;;;;;;;-1.41;91.75;95018.38;5069698;28;20001;-73
2023/11/24 01:05:30;;;;;;;;;;;;;;;-1.07;91.49;95020.16;5061750;28;20041;-74
2023/11/24 01:07:55;;;;;;;;;;;;;;;-0.67;88.51;95031.91;5067905;28;20408;-74
2023/11/24 01:10:21;;;;;;;;;;;;;;;-1.08;89.81;95013.28;5062349;28;20010;-75
2023/11/24 01:12:46;;;;;;;;;;;;;;;-0.85;88.19;95023.72;5077385;28;19961;-74
2023/11/24 01:15:14;;;;;;;;;;;;;;;-0.77;87.64;95021.34;5071055;28;19971;-73
2023/11/24 01:17:39;;;;;;;;;;;;;;;-0.70;87.39;95022.50;5065752;28;19978;-73
2023/11/24 01:20:09;;;;;;;;;;;;;;;-0.80;86.65;95008.50;5056804;28;19993;-75
2023/11/24 01:22:34;;;;;;;;;;;;;;;-0.31;84.47;95015.97;5071209;28;19957;-74
2023/11/24 01:24:59;;;;;;;;;;;;;;;-0.09;83.79;95019.44;5068586;28;19986;-72
2023/11/24 01:27:25;;;;;;;;;;;;;;;-0.23;84.62;95016.16;5071533;28;20021;-72
2023/11/24 01:29:50;;;;;;;;;;;;;;;-0.28;84.62;95012.25;5071733;28;20027;-72
2023/11/24 01:32:15;;;;;;;;;;;;;;;-0.05;83.92;95007.78;5086720;28;20102;-75
2023/11/24 01:34:41;;;;;;;;;;;;;;;-0.50;85.56;95012.25;5072968;28;19976;-72
2023/11/24 01:37:07;;;;;;;;;;;;;;;-0.58;86.90;95019.84;5071223;28;19990;-74
2023/11/24 01:39:32;;;;;;;;;;;;;;;-0.75;87.62;95019.41;5065204;28;19960;-75
2023/11/24 01:41:57;;;;;;;;;;;;;;;-0.32;86.04;95015.16;5075568;28;19947;-75
2023/11/24 01:44:22;;;;;;;;;;;;;;;-0.40;87.24;95016.72;5071146;28;19980;-73
2023/11/24 01:46:48;;;;;;;;;;;;;;;-0.58;87.78;95025.94;5072983;28;19954;-74
2023/11/24 01:49:13;;;;;;;;;;;;;;;-0.79;88.87;95010.16;5074933;28;19996;-75
2023/11/24 01:51:38;;;;;;;;;;;;;;;-0.89;89.54;95014.44;5070549;28;19966;-74
2023/11/24 01:54:04;;;;;;;;;;;;;;;-1.06;92.22;95013.16;5076071;28;20012;-75
2023/11/24 01:56:29;;;;;;;;;;;;;;;-0.65;90.09;95019.53;5071000;28;19926;-74
2023/11/24 01:58:54;;;;;;;;;;;;;;;-0.91;90.61;95026.81;5066509;28;19944;-74
2023/11/24 02:01:23;;;;;;;;;;;;;;;-0.81;89.21;95022.53;5071697;28;19956;-76
2023/11/24 02:03:48;;;;;;;;;;;;;;;-1.03;89.66;95039.03;5072078;28;19964;-75
2023/11/24 02:06:13;;;;;;;;;;;;;;;-1.55;92.08;95048.16;5074105;28;19966;-75
2023/11/24 02:08:39;;;;;;;;;;;;;;;-1.24;91.58;95066.72;5068718;28;19937;-76
2023/11/24 02:11:04;;;;;;;;;;;;;;;-1.19;88.85;95070.75;5058220;28;19959;-74
2023/11/24 02:13:29;;;;;;;;;;;;;;;-1.94;89.82;95068.47;5074996;28;20053;-75
2023/11/24 02:15:54;;;;;;;;;;;;;;;-1.91;90.69;95069.06;5073818;28;20364;-75
2023/11/24 02:18:20;;;;;;;;;;;;;;;-1.76;90.00;95066.28;5058810;28;19958;-76
2023/11/24 02:20:45;;;;;;;;;;;;;;;-1.83;88.58;95058.06;5072950;28;19952;-75
2023/11/24 02:23:11;;;;;;;;;;;;;;;-1.71;87.05;95069.38;5058988;28;19967;-75
2023/11/24 02:25:36;;;;;;;;;;;;;;;-1.68;87.39;95053.47;5059201;28;19939;-75
2023/11/24 02:28:01;;;;;;;;;;;;;;;-1.59;85.96;95051.97;5061183;28;19967;-75
2023/11/24 02:30:27;;;;;;;;;;;;;;;-1.55;86.06;95047.31;5059943;28;20043;-77
2023/11/24 02:32:53;;;;;;;;;;;;;;;-1.31;84.31;95046.41;5065015;28;19960;-76
2023/11/24 02:35:18;;;;;;;;;;;;;;;-1.17;82.51;95045.31;5066504;28;19956;-78
2023/11/24 02:37:43;;;;;;;;;;;;;;;-0.94;80.56;95025.28;5059277;28;19920;-77
2023/11/24 02:40:09;;;;;;;;;;;;;;;-1.35;82.09;95030.94;5068139;28;19954;-77
2023/11/24 02:42:35;;;;;;;;;;;;;;;-1.10;81.95;95020.38;5073638;28;20102;-77
2023/11/24 02:45:01;;;;;;;;;;;;;;;-0.25;78.17;95025.09;5055966;28;19920;-76
2023/11/24 02:47:26;;;;;;;;;;;;;;;-0.70;78.94;95026.91;5066566;28;19993;-75
2023/11/24 02:49:51;;;;;;;;;;;;;;;-0.78;78.82;95026.69;5062832;28;20435;-76
2023/11/24 02:52:16;;;;;;;;;;;;;;;-0.72;78.74;95034.88;5055099;28;19958;-76
2023/11/24 02:54:42;;;;;;;;;;;;;;;-0.60;77.48;95024.38;5068099;28;20049;-75
2023/11/24 02:57:07;;;;;;;;;;;;;;;-0.34;76.52;95021.47;5064122;28;19931;-77
2023/11/24 02:59:32;;;;;;;;;;;;;;;-0.75;77.24;95022.03;5066954;28;20007;-76
2023/11/24 03:01:57;;;;;;;;;;;;;;;-0.70;76.38;95019.88;5072903;28;19916;-76
2023/11/24 03:04:23;;;;;;;;;;;;;;;-1.16;78.53;95005.22;5081910;28;19936;-75
2023/11/24 03:06:48;;;;;;;;;;;;;;;-0.92;76.85;95001.66;5065977;28;19921;-76
2023/11/24 03:09:14;;;;;;;;;;;;;;;-0.68;76.19;94998.03;5074426;28;19985;-76
2023/11/24 03:11:39;;;;;;;;;;;;;;;-0.99;76.76;95006.47;5070575;28;20057;-77
2023/11/24 03:14:04;;;;;;;;;;;;;;;-0.93;77.41;94997.34;5079336;28;19920;-76
2023/11/24 03:16:31;;;;;;;;;;;;;;;-0.71;76.47;94986.84;5075638;28;19924;-76
2023/11/24 03:18:56;;;;;;;;;;;;;;;-0.82;76.19;94997.34;5064509;28;19959;-79
2023/11/24 03:21:21;;;;;;;;;;;;;;;-0.65;77.05;94992.56;5067309;28;19998;-76
2023/11/24 03:23:46;;;;;;;;;;;;;;;-0.18;75.90;94997.47;5063977;28;19947;-77
2023/11/24 03:26:12;;;;;;;;;;;;;;;-0.55;76.31;94998.69;5075193;28;19947;-79
2023/11/24 03:28:37;;;;;;;;;;;;;;;-0.51;76.78;94984.41;5064280;28;19954;-78
2023/11/24 03:31:03;;;;;;;;;;;;;;;-0.59;76.89;94989.44;5074852;28;19979;-77
2023/11/24 03:33:29;;;;;;;;;;;;;;;-0.73;77.13;94986.16;5064848;28;19928;-78
2023/11/24 03:35:54;;;;;;;;;;;;;;;-0.11;74.51;94982.94;5066668;28;19980;-80
2023/11/24 03:38:20;;;;;;;;;;;;;;;0.05;74.39;94984.28;5060441;28;20367;-77
2023/11/24 03:40:47;;;;;;;;;;;;;;;-0.44;75.80;94982.13;5064735;28;19927;-79
2023/11/24 03:43:13;;;;;;;;;;;;;;;-0.27;74.93;94988.59;5061724;28;20061;-77
2023/11/24 03:45:38;;;;;;;;;;;;;;;-0.32;74.72;94972.44;5067339;28;19981;-79
2023/11/24 03:48:04;;;;;;;;;;;;;;;-0.34;74.91;94974.38;5064526;28;19928;-80
2023/11/24 03:50:29;;;;;;;;;;;;;;;-0.47;74.98;94972.75;5085890;28;19919;-80
2023/11/24 03:52:55;;;;;;;;;;;;;;;-0.41;75.47;94971.41;5065451;28;19932;-79
2023/11/24 03:55:20;;;;;;;;;;;;;;;-0.64;75.34;94976.72;5069336;28;19920;-81
2023/11/24 03:57:46;;;;;;;;;;;;;;;-0.50;74.64;94970.41;5066431;28;19925;-79
2023/11/24 04:00:11;;;;;;;;;;;;;;;-0.82;76.60;94965.97;5072067;28;20271;-78
2023/11/24 04:02:36;;;;;;;;;;;;;;;-0.99;77.72;94965.50;5073239;28;20033;-78
2023/11/24 04:05:02;;;;;;;;;;;;;;;-1.39;78.44;94974.69;5061191;28;19963;-77
2023/11/24 04:07:27;;;;;;;;;;;;;;;-1.49;79.29;94979.78;5062860;28;19925;-77
2023/11/24 04:09:52;;;;;;;;;;;;;;;-1.53;80.02;94957.47;5064039;28;20762;-77
2023/11/24 04:12:17;;;;;;;;;;;;;;;-1.44;80.11;94973.38;5064050;28;19931;-76
2023/11/24 04:14:43;;;;;;;;;;;;;;;-1.34;79.00;94964.72;5061260;28;19956;-76
2023/11/24 04:17:09;;;;;;;;;;;;;;;-1.16;79.14;94963.41;5064071;28;19927;-77
2023/11/24 04:19:35;;;;;;;;;;;;;;;-1.12;78.76;94957.81;5059122;28;19940;-79
2023/11/24 04:22:00;;;;;;;;;;;;;;;-1.53;80.19;94970.53;5066461;28;19924;-80
2023/11/24 04:24:25;;;;;;;;;;;;;;;-1.42;80.35;94968.88;5058331;28;19955;-78
2023/11/24 04:26:50;;;;;;;;;;;;;;;-1.34;80.43;94962.13;5060050;28;19970;-78
2023/11/24 04:29:16;;;;;;;;;;;;;;;-1.41;80.83;94973.16;5058005;28;19974;-74
2023/11/24 04:31:41;;;;;;;;;;;;;;;-1.45;81.40;94954.28;5058025;28;19935;-74
2023/11/24 04:34:06;;;;;;;;;;;;;;;-1.54;82.40;94945.38;5062869;28;20457;-74
2023/11/24 04:36:31;;;;;;;;;;;;;;;-1.51;81.96;94937.31;5058885;28;20317;-74
2023/11/24 04:38:57;;;;;;;;;;;;;;;-1.45;81.81;94949.06;5063643;28;19935;-74
2023/11/24 04:41:22;;;;;;;;;;;;;;;-1.53;81.48;94954.06;5057545;28;19961;-73
2023/11/24 04:43:47;;;;;;;;;;;;;;;-1.60;82.06;94940.63;5065656;28;20035;-74
2023/11/24 04:46:13;;;;;;;;;;;;;;;-1.68;83.28;94945.59;5058165;28;19920;-74
2023/11/24 04:48:38;;;;;;;;;;;;;;;-1.54;83.21;94945.38;5052837;28;19921;-74
2023/11/24 04:51:04;;;;;;;;;;;;;;;-1.22;80.86;94938.59;5070359;28;20536;-73
2023/11/24 04:53:29;;;;;;;;;;;;;;;-1.42;82.07;94932.31;5070696;28;20026;-74
2023/11/24 04:55:55;;;;;;;;;;;;;;;-1.56;82.74;94938.63;5065139;28;20038;-74
2023/11/24 04:58:20;;;;;;;;;;;;;;;-1.27;82.16;94930.28;5065457;28;20445;-73
2023/11/24 05:00:46;;;;;;;;;;;;;;;-0.91;80.46;94922.28;5070385;28;19923;-74
2023/11/24 05:03:12;;;;;;;;;;;;;;;-1.56;82.82;94918.53;5077595;28;19949;-74
2023/11/24 05:05:38;;;;;;;;;;;;;;;-1.30;81.89;94927.91;5065469;28;20598;-74
2023/11/24 05:08:04;;;;;;;;;;;;;;;-1.67;82.75;94918.56;5072663;28;20144;-74
2023/11/24 05:10:29;;;;;;;;;;;;;;;-1.67;82.89;94919.38;5064451;28;19921;-75
2023/11/24 05:12:54;;;;;;;;;;;;;;;-1.62;82.62;94924.25;5062592;28;19920;-74
2023/11/24 05:15:19;;;;;;;;;;;;;;;-1.53;82.00;94905.25;5066783;28;19924;-75
2023/11/24 05:17:45;;;;;;;;;;;;;;;-1.23;81.08;94903.78;5061248;28;20151;-73
2023/11/24 05:20:14;;;;;;;;;;;;;;;-0.88;79.56;94899.31;5089747;28;19924;-75
2023/11/24 05:22:39;;;;;;;;;;;;;;;-1.13;80.58;94890.00;5088600;28;19931;-74
2023/11/24 05:25:05;;;;;;;;;;;;;;;-1.51;81.92;94903.38;5075242;28;19954;-74
2023/11/24 05:27:30;;;;;;;;;;;;;;;-1.70;83.41;94882.25;5086568;28;19931;-73
2023/11/24 05:29:56;;;;;;;;;;;;;;;-1.62;83.34;94901.56;5073440;28;20415;-74
2023/11/24 05:32:21;;;;;;;;;;;;;;;-1.78;83.83;94891.50;5075221;28;19947;-75
2023/11/24 05:34:46;;;;;;;;;;;;;;;-2.07;84.93;94880.72;5065106;28;20566;-73
2023/11/24 05:37:12;;;;;;;;;;;;;;;-1.88;83.96;94874.91;5053868;28;19978;-73
2023/11/24 05:39:37;;;;;;;;;;;;;;;-2.12;84.82;94870.63;5050296;28;19931;-76
2023/11/24 05:42:04;;;;;;;;;;;;;;;-2.03;84.20;94871.69;5050592;28;19916;-76
2023/11/24 05:44:29;;;;;;;;;;;;;;;-2.36;85.72;94871.53;5046886;28;19921;-75
2023/11/24 05:46:54;;;;;;;;;;;;;;;-2.30;85.02;94871.09;5056857;28;19927;-72
2023/11/24 05:49:19;;;;;;;;;;;;;;;-2.73;86.58;94864.69;5052157;28;19935;-70
2023/11/24 05:51:45;;;;;;;;;;;;;;;-2.79;88.36;94865.97;5053565;28;19930;-70
2023/11/24 05:54:12;;;;;;;;;;;;;;;-3.01;87.95;94851.94;5053386;28;19928;-70
2023/11/24 05:56:37;;;;;;;;;;;;;;;-3.00;88.37;94857.97;5055526;28;19978;-71
2023/11/24 05:59:03;;;;;;;;;;;;;;;-2.86;88.47;94861.34;5054983;28;20775;-71
2023/11/24 06:01:28;;;;;;;;;;;;;;;-2.59;88.17;94848.03;5050259;28;20381;-71
2023/11/24 06:03:53;;;;;;;;;;;;;;;-2.96;87.41;94848.19;5050313;28;20610;-71
2023/11/24 06:06:19;;;;;;;;;;;;;;;-2.99;87.46;94853.59;5049313;28;19988;-72
2023/11/24 06:08:44;;;;;;;;;;;;;;;-3.07;87.40;94851.53;5056479;28;19925;-70
2023/11/24 06:11:09;;;;;;;;;;;;;;;-3.20;88.11;94857.66;5056130;28;19924;-71
2023/11/24 06:13:35;;;;;;;;;;;;;;;-3.22;89.02;94863.91;5046144;28;20467;-70
2023/11/24 06:16:00;;;;;;;;;;;;;;;-3.18;88.00;94853.19;5050114;28;20461;-71
2023/11/24 06:18:28;;;;;;;;;;;;;;;-3.10;87.36;94857.81;5046107;28;20317;-72
2023/11/24 06:20:53;;;;;;;;;;;;;;;-2.98;88.12;94869.13;5044879;28;20050;-72
2023/11/24 06:23:19;;;;;;;;;;;;;;;-2.92;86.45;94849.59;5040772;28;20019;-71
2023/11/24 06:25:44;;;;;;;;;;;;;;;-3.01;86.86;94854.56;5045448;28;19924;-73
2023/11/24 06:28:09;;;;;;;;;;;;;;;-2.95;86.08;94845.44;5048983;28;19968;-71
2023/11/24 06:30:34;;;;;;;;;;;;;;;-3.15;87.07;94841.69;5053841;28;19950;-71
2023/11/24 06:33:00;;;;;;;;;;;;;;;-3.05;85.81;94847.06;5053052;28;19931;-70
2023/11/24 06:35:25;;;;;;;;;;;;;;;-3.37;88.07;94852.84;5051340;28;19936;-71
2023/11/24 06:37:50;;;;;;;;;;;;;;;-3.40;88.67;94851.25;5054555;28;19934;-72
2023/11/24 06:40:15;;;;;;;;;;;;;;;-3.17;88.44;94856.59;5050976;28;20490;-71
2023/11/24 06:42:40;;;;;;;;;;;;;;;-2.96;88.23;94856.00;5053123;28;20623;-71
2023/11/24 06:45:08;;;;;;;;;;;;;;;-3.22;89.10;94843.94;5045470;28;19923;-70
2023/11/24 06:47:33;;;;;;;;;;;;;;;-3.53;90.27;94846.94;5042222;28;19932;-72
2023/11/24 06:49:58;;;;;;;;;;;;;;;-3.17;89.10;94843.56;5052364;28;19928;-71
2023/11/24 06:52:23;;;;;;;;;;;;;;;-3.36;89.87;94851.91;5048928;28;19917;-71
2023/11/24 06:54:49;;;;;;;;;;;;;;;-3.22;89.30;94854.34;5054701;28;19924;-70
2023/11/24 06:57:16;;;;;;;;;;;;;;;-3.38;89.20;94870.22;5043814;28;20188;-71
2023/11/24 06:59:41;;;;;;;;;;;;;;;-3.30;88.65;94862.69;5049307;28;19936;-71
2023/11/24 07:02:07;;;;;;;;;;;;;;;-3.28;87.94;94865.19;5050453;28;19924;-71
2023/11/24 07:04:33;;;;;;;;;;;;;;;-3.31;87.96;94850.63;5044488;28;19920;-71
2023/11/24 07:06:58;;;;;;;;;;;;;;;-3.36;87.05;94873.53;5046816;28;20427;-71
2023/11/24 07:09:23;;;;;;;;;;;;;;;-3.18;87.03;94874.00;5049706;28;19971;-72
2023/11/24 07:11:48;;;;;;;;;;;;;;;-3.01;85.52;94862.38;5040805;28;19935;-71
2023/11/24 07:14:14;;;;;;;;;;;;;;;-2.90;85.10;94863.34;5050434;28;19936;-72
2023/11/24 07:16:39;;;;;;;;;;;;;;;-2.32;83.32;94846.06;5051093;28;20070;-71
2023/11/24 07:19:05;;;;;;;;;;;;;;;-2.29;82.29;94862.31;5052870;28;19924;-72
2023/11/24 07:21:30;;;;;;;;;;;;;;;-2.55;83.51;94864.28;5054166;28;20004;-72
2023/11/24 07:23:56;;;;;;;;;;;;;;;-2.68;83.60;94859.16;5063781;28;19935;-72
2023/11/24 07:26:22;;;;;;;;;;;;;;;-2.96;84.24;94856.81;5055384;28;19986;-71
2023/11/24 07:28:47;;;;;;;;;;;;;;;-2.77;84.79;94864.09;5048286;28;19930;-70
2023/11/24 07:31:14;;;;;;;;;;;;;;;-2.27;81.91;94839.53;5050644;28;19932;-71
2023/11/24 07:33:41;;;;;;;;;;;;;;;-2.26;81.80;94848.22;5049361;28;20450;-71
2023/11/24 07:36:08;;;;;;;;;;;;;;;-2.82;83.69;94850.56;5052978;28;20016;-71
2023/11/24 07:38:34;;;;;;;;;;;;;;;-2.59;83.67;94853.25;5050863;28;19985;-71
2023/11/24 07:40:59;;;;;;;;;;;;;;;-2.47;82.13;94842.84;5049686;28;19967;-71
2023/11/24 07:43:24;;;;;;;;;;;;;;;-2.12;80.71;94844.53;5050940;28;20293;-72
2023/11/24 07:45:51;;;;;;;;;;;;;;;-2.70;83.70;94840.19;5051846;28;19924;-72
2023/11/24 07:48:17;;;;;;;;;;;;;;;-2.58;83.95;94836.66;5052838;28;19928;-72
2023/11/24 07:50:43;;;;;;;;;;;;;;;-2.64;83.57;94822.31;5051255;28;19989;-72
2023/11/24 07:53:13;;;;;;;;;;;;;;;-2.78;84.60;94830.34;5052512;28;20563;-73
2023/11/24 07:55:38;;;;;;;;;;;;;;;-3.04;85.73;94835.69;5050968;28;19966;-71
2023/11/24 07:58:03;;;;;;;;;;;;;;;-3.29;86.89;94827.09;5051180;28;19952;-71
2023/11/24 08:00:30;;;;;;;;;;;;;;;-3.25;86.92;94830.28;5047691;28;19967;-73
2023/11/24 08:02:56;;;;;;;;;;;;;;;-3.28;86.84;94829.56;5049413;28;20611;-72
2023/11/24 08:05:21;;;;;;;;;;;;;;;-3.24;87.61;94821.53;5049936;28;19951;-72
2023/11/24 08:07:46;;;;;;;;;;;;;;;-3.54;89.42;94811.47;5052109;28;19931;-72
2023/11/24 08:10:12;;;;;;;;;;;;;;;-3.32;87.99;94814.28;5052851;28;19986;-72
2023/11/24 08:12:38;;;;;;;;;;;;;;;-3.11;87.53;94803.22;5051943;28;19978;-72
2023/11/24 08:15:05;;;;;;;;;;;;;;;-3.24;86.49;94809.34;5049068;28;19975;-72
2023/11/24 08:17:30;;;;;;;;;;;;;;;-2.65;86.19;94799.78;5048526;28;19939;-71
2023/11/24 08:19:56;;;;;;;;;;;;;;;-2.43;84.02;94792.13;5049709;28;19931;-71
2023/11/24 08:22:21;;;;;;;;;;;;;;;-2.82;86.58;94793.25;5049242;28;20069;-71
2023/11/24 08:24:46;;;;;;;;;;;;;;;-3.07;87.84;94794.25;5048956;28;19921;-71
2023/11/24 08:27:12;;;;;;;;;;;;;;;-3.24;89.15;94791.13;5056626;28;20683;-71
2023/11/24 08:29:37;;;;;;;;;;;;;;;-3.04;87.06;94794.88;5049854;28;20353;-71
2023/11/24 08:32:02;;;;;;;;;;;;;;;-2.98;86.00;94798.78;5055222;28;19932;-71
2023/11/24 08:34:28;;;;;;;;;;;;;;;-2.93;86.07;94791.44;5053074;28;20389;-71
2023/11/24 08:36:53;;;;;;;;;;;;;;;-3.06;85.93;94790.72;5054157;28;19928;-71
2023/11/24 08:39:19;;;;;;;;;;;;;;;-3.43;87.85;94781.22;5046972;28;19963;-71
2023/11/24 08:41:47;;;;;;;;;;;;;;;-3.32;87.84;94789.09;5046257;28;20470;-71
2023/11/24 08:44:13;;;;;;;;;;;;;;;-3.05;87.09;94772.34;5073093;28;19928;-71
2023/11/24 08:46:38;;;;;;;;;;;;;;;-3.08;86.25;94779.56;5062680;28;19970;-71
2023/11/24 08:49:03;;;;;;;;;;;;;;;-2.83;85.50;94762.09;5050932;28;19934;-71
2023/11/24 08:51:28;;;;;;;;;;;;;;;-3.22;86.61;94755.41;5052129;28;19951;-71
2023/11/24 08:53:54;;;;;;;;;;;;;;;-3.71;88.89;94751.97;5053552;28;19924;-71
2023/11/24 08:56:19;;;;;;;;;;;;;;;-3.60;88.89;94748.63;5056168;28;19994;-75
2023/11/24 08:58:45;;;;;;;;;;;;;;;-3.47;87.44;94743.34;5041462;28;19920;-74
2023/11/24 09:01:13;;;;;;;;;;;;;;;-2.89;86.22;94748.59;5051996;28;19943;-75
2023/11/24 09:03:39;;;;;;;;;;;;;;;-3.16;86.94;94754.91;5054526;28;19939;-73
2023/11/24 09:06:04;;;;;;;;;;;;;;;-2.99;85.65;94757.22;5050722;28;19971;-74
2023/11/24 09:08:29;;;;;;;;;;;;;;;-3.36;87.61;94738.16;5048227;28;19916;-76
2023/11/24 09:10:54;;;;;;;;;;;;;;;-3.74;88.54;94765.22;5046015;28;19932;-76
2023/11/24 09:13:20;;;;;;;;;;;;;;;-3.31;87.42;94746.47;5046868;28;19929;-74
2023/11/24 09:15:45;;;;;;;;;;;;;;;-3.38;87.36;94740.06;5046659;28;19924;-75
2023/11/24 09:18:10;;;;;;;;;;;;;;;-3.04;85.91;94747.97;5051005;28;19924;-75
2023/11/24 09:20:36;;;;;;;;;;;;;;;-3.24;86.26;94735.59;5050648;28;19920;-75
2023/11/24 09:23:01;;;;;;;;;;;;;;;-3.19;86.17;94725.69;5050853;28;19920;-76
2023/11/24 09:25:26;;;;;;;;;;;;;;;-2.86;84.95;94713.66;5054588;28;19920;-77
2023/11/24 09:27:52;;;;;;;;;;;;;;;-3.16;84.71;94738.50;5039629;28;19924;-75
2023/11/24 09:30:17;;;;;;;;;;;;;;;-3.03;85.19;94725.34;5056596;28;19968;-77
2023/11/24 09:32:43;;;;;;;;;;;;;;;-3.31;86.35;94722.22;5073538;28;19970;-76
2023/11/24 09:35:08;;;;;;;;;;;;;;;-3.50;86.28;94730.56;5051760;28;20020;-76
2023/11/24 09:37:33;;;;;;;;;;;;;;;-3.52;86.61;94718.47;5044926;28;19956;-64
2023/11/24 09:39:59;;;;;;;;;;;;;;;-3.61;88.17;94706.13;5050931;28;19932;-64
2023/11/24 09:42:24;;;;;;;;;;;;;;;-3.24;86.86;94710.41;5051684;28;21693;-64
2023/11/24 09:44:54;;;;;;;;;;;;;;;-3.06;85.58;94700.38;5052693;28;19928;-64
2023/11/24 09:47:19;;;;;;;;;;;;;;;-3.34;86.44;94704.22;5055457;28;19931;-64
2023/11/24 09:49:45;;;;;;;;;;;;;;;-3.46;87.29;94700.75;5042244;28;19920;-64
2023/11/24 09:52:10;;;;;;;;;;;;;;;-3.99;88.88;94699.34;5073546;28;19998;-64
2023/11/24 09:54:35;;;;;;;;;;;;;;;-3.99;89.83;94701.94;5065664;28;19924;-64
2023/11/24 09:57:01;;;;;;;;;;;;;;;-3.41;88.47;94693.44;5052906;28;20416;-64
2023/11/24 09:59:26;;;;;;;;;;;;;;;-3.56;88.36;94705.81;5051681;28;19924;-64
2023/11/24 10:01:53;;;;;;;;;;;;;;;-3.26;87.65;94691.44;5051617;28;19960;-64
2023/11/24 10:04:18;;;;;;;;;;;;;;;-3.32;87.21;94686.72;5050589;28;20314;-65
2023/11/24 10:06:44;;;;;;;;;;;;;;;-3.33;87.73;94691.06;5044433;28;20019;-64
2023/11/24 10:09:10;;;;;;;;;;;;;;;-3.36;88.02;94683.50;5042213;28;19920;-64
2023/11/24 10:11:38;;;;;;;;;;;;;;;-3.50;87.99;94686.31;5050073;28;20005;-64
2023/11/24 10:14:04;;;;;;;;;;;;;;;-3.77;88.35;94683.00;5048376;28;20662;-64
2023/11/24 10:16:30;;;;;;;;;;;;;;;-4.00;90.66;94689.88;5049381;28;19959;-64
2023/11/24 10:18:56;;;;;;;;;;;;;;;-4.04;90.57;94682.28;5054390;28;19924;-64
2023/11/24 10:21:21;;;;;;;;;;;;;;;-3.38;87.54;94687.16;5054487;28;20360;-65
2023/11/24 10:23:46;;;;;;;;;;;;;;;-3.52;89.77;94666.41;5056384;28;19936;-64
2023/11/24 10:26:15;;;;;;;;;;;;;;;-3.52;88.00;94684.63;5052865;28;19932;-65
2023/11/24 10:28:41;;;;;;;;;;;;;;;-3.68;88.01;94648.53;5053605;28;20014;-64
2023/11/24 10:31:07;;;;;;;;;;;;;;;-3.26;87.82;94639.38;5054437;28;20041;-64
2023/11/24 10:33:32;;;;;;;;;;;;;;;-3.29;86.93;94658.66;5069091;28;21927;-65
2023/11/24 10:35:58;;;;;;;;;;;;;;;-3.40;86.78;94643.00;5054464;28;19921;-64
2023/11/24 10:38:25;;;;;;;;;;;;;;;-3.55;87.06;94660.63;5052428;28;19929;-65
2023/11/24 10:40:50;;;;;;;;;;;;;;;-3.70;86.76;94649.59;5052644;28;20003;-64
2023/11/24 10:43:17;;;;;;;;;;;;;;;-3.50;88.11;94642.06;5053552;28;20047;-64
2023/11/24 10:45:42;;;;;;;;;;;;;;;-3.81;87.92;94658.16;5051690;28;20469;-64
2023/11/24 10:48:14;;;;;;;;;;;;;;;-3.71;88.13;94653.94;5055721;28;19989;-64
2023/11/24 10:50:45;;;;;;;;;;;;;;;-4.02;88.62;94663.16;5052377;28;19931;-64
2023/11/24 10:53:14;;;;;;;;;;;;;;;-4.05;90.58;94636.44;5055747;28;19924;-64
2023/11/24 10:55:40;;;;;;;;;;;;;;;-4.02;89.56;94634.53;5048330;28;20304;-65
2023/11/24 10:58:05;;;;;;;;;;;;;;;-4.11;90.47;94638.66;5068764;28;19924;-65
2023/11/24 11:00:30;;;;;;;;;;;;;;;-3.67;88.41;94628.56;5048548;28;19938;-64
2023/11/24 11:02:56;;;;;;;;;;;;;;;-3.82;87.47;94625.28;5050437;28;19924;-64
2023/11/24 11:05:24;;;;;;;;;;;;;;;-3.99;87.54;94616.13;5041178;28;19924;-65
2023/11/24 11:07:54;;;;;;;;;;;;;;;-3.88;86.91;94612.75;5057695;28;20377;-65
2023/11/24 11:10:26;;;;;;;;;;;;;;;-4.06;87.77;94610.53;5071408;28;20708;-66
2023/11/24 11:12:53;;;;;;;;;;;;;;;-3.52;86.15;94593.53;5052849;28;19964;-66
2023/11/24 11:15:31;;;;;;;;;;;;;;;-3.11;84.67;94595.72;5048305;28;20019;-66
2023/11/24 11:18:05;;;;;;;;;;;;;;;-3.66;84.16;94601.56;5053334;28;20525;-66
2023/11/24 11:20:30;;;;;;;;;;;;;;;-3.68;86.73;94593.03;5069462;28;19993;-66
2023/11/24 11:22:59;;;;;;;;;;;;;;;-3.73;86.86;94582.16;5063510;28;20506;-66
2023/11/24 11:25:32;;;;;;;;;;;;;;;-3.67;86.58;94573.91;5051903;28;20009;-66
2023/11/24 11:28:16;;;;;;;;;;;;;;;-3.56;85.79;94588.69;5051152;28;19928;-66
2023/11/24 11:30:41;;;;;;;;;;;;;;;-3.46;86.28;94584.44;5050213;28;19925;-67
2023/11/24 11:33:09;;;;;;;;;;;;;;;-3.40;84.35;94570.97;5045272;28;19932;-66
2023/11/24 11:35:35;;;;;;;;;;;;;;;-3.67;83.65;94585.13;5046421;28;19924;-67
2023/11/24 11:38:00;;;;;;;;;;;;;;;-3.85;84.47;94594.28;5038021;28;20577;-67
2023/11/24 11:40:32;;;;;;;;;;;;;;;-4.00;84.59;94567.66;5050861;28;19921;-67
2023/11/24 11:42:58;;;;;;;;;;;;;;;-4.11;85.07;94591.88;5048271;28;20015;-67
2023/11/24 11:45:29;;;;;;;;;;;;;;;-3.84;84.62;94575.16;5053027;28;19951;-66
2023/11/24 11:47:56;;;;;;;;;;;;;;;-3.66;83.44;94584.16;5052357;28;19925;-67
2023/11/24 11:50:21;;;;;;;;;;;;;;;-3.82;83.48;94576.72;5050018;28;20003;-67
2023/11/24 11:52:47;;;;;;;;;;;;;;;-3.29;82.90;94582.34;5051578;28;20638;-67
2023/11/24 11:55:12;;;;;;;;;;;;;;;-3.16;80.35;94577.03;5051085;28;19932;-67
2023/11/24 11:57:38;;;;;;;;;;;;;;;-3.18;81.56;94590.16;5052909;28;20459;-67
2023/11/24 12:00:06;;;;;;;;;;;;;;;-3.34;83.53;94543.66;5049279;28;19993;-67
2023/11/24 12:02:32;;;;;;;;;;;;;;;-3.15;82.22;94574.28;5055502;28;19954;-67
2023/11/24 12:04:57;;;;;;;;;;;;;;;-3.81;82.34;94560.16;5058681;28;19966;-68
2023/11/24 12:07:24;;;;;;;;;;;;;;;-3.34;82.81;94576.66;5067901;28;20409;-67
2023/11/24 12:09:49;;;;;;;;;;;;;;;-3.54;80.75;94590.25;5074109;28;19920;-68
2023/11/24 12:12:14;;;;;;;;;;;;;;;-3.50;81.11;94564.81;5057149;28;19955;-67
2023/11/24 12:14:41;;;;;;;;;;;;;;;-2.82;75.68;94555.34;5055103;28;20031;-68
2023/11/24 12:17:06;;;;;;;;;;;;;;;-2.58;78.19;94569.97;5057420;28;20551;-68
2023/11/24 12:19:33;;;;;;;;;;;;;;;-2.51;76.73;94547.69;5056843;28;19924;-69
2023/11/24 12:21:59;;;;;;;;;;;;;;;-2.94;77.44;94559.72;5056923;28;20405;-67
2023/11/24 12:24:26;;;;;;;;;;;;;;;-2.78;74.68;94562.78;5052711;28;20393;-67
2023/11/24 12:26:52;;;;;;;;;;;;;;;-3.28;77.77;94547.56;5054257;28;19935;-68
2023/11/24 12:29:18;;;;;;;;;;;;;;;-3.45;76.30;94546.25;5056035;28;19924;-67
2023/11/24 12:31:43;;;;;;;;;;;;;;;-3.13;77.75;94542.91;5056281;28;19963;-67
2023/11/24 12:34:24;;;;;;;;;;;;;;;-2.82;74.89;94517.06;5054919;28;19972;-67
2023/11/24 12:36:51;;;;;;;;;;;;;;;-2.59;74.45;94527.44;5053987;28;20003;-67
2023/11/24 12:39:16;;;;;;;;;;;;;;;-2.09;73.23;94523.47;5057564;28;20510;-67
2023/11/24 12:41:42;;;;;;;;;;;;;;;-2.56;72.43;94536.78;5057604;28;19920;-67